aviador You're here:

GEML Decoded Metar

MELILLA in SPAIN
Report Time2018-01-17 18:00:00
UTC Time2018-01-17 18:16:18
Flight Rules vfr VFR
WindCalm
Visibility9999 m
Phenomena:N/A
Clouds:N/A
Expected CloudBase > 1,600 ft AGL from Temp-Dew spread
CeilingNone
Temp14°C (ISA -1)
Dew Point10°C (77% RH)
QNH1021 hPa
Density Alt0 ft
Elevation180 ft
Report Wrong Elevation
Raw Report
GEML 171800Z 00000KT CAVOK 14/10 Q1021=

Extra information for GEML:More info

Metar Taf Metar & Taf Last 4 Metars F.Rules Stats Wind Profile Meteogram Temp Stats Airport Information Weather charts Add Link Nearby VenuesMetar ALERT Operation Metar Decoded Social comments